CheckWX is a tool to help pilots better visualize weather data.  It is not intended as a substitute for an official pre-flight weather briefing.

20:37:33 UTC

USSS METAR
Koltsovo Airport
Yekaterinburg, Russian Federation
Current

38 mins ago

USSS 162000Z 27005MPS CAVOK 15/14 Q1011 R26L/010060 R26R/010060 NOSIG RMK QFE738/0984
Observed
Jul-16 @ 20:00 UTC
Wind
  • 270° at 10 KTS
Visibility
10,000+ meters
Flight Rules
VFR
Cloud Levels
  • Clear skies
Temperature
15°C / 59°F
Dewpoint
14°C / 57°F
Humidity
94%
Altimeter
29.85" Hg
Pressure
1010.92 hPa
Previous

1 hour ago

USSS 161930Z 27005MPS CAVOK 15/13 Q1011 R26L/010060 R26R/010060 NOSIG RMK QFE737/0983
Observed
Jul-16 @ 19:30 UTC
Wind
  • 270° at 10 KTS
Visibility
10,000+ meters
Flight Rules
VFR
Cloud Levels
  • Clear skies
Temperature
15°C / 59°F
Dewpoint
13°C / 55°F
Humidity
88%
Altimeter
29.85" Hg
Pressure
1010.92 hPa
Previous

2 hours ago

USSS 161900Z 27005MPS CAVOK 15/14 Q1011 R26L/010060 R26R/010060 NOSIG RMK QFE737/0983
Observed
Jul-16 @ 19:00 UTC
Wind
  • 270° at 10 KTS
Visibility
10,000+ meters
Flight Rules
VFR
Cloud Levels
  • Clear skies
Temperature
15°C / 59°F
Dewpoint
14°C / 57°F
Humidity
94%
Altimeter
29.85" Hg
Pressure
1010.92 hPa